Holmfirth, United Kingdom
Current Conditions -  °F | °C
As of 6:20 AM on Wednesday 26 Nov 2014 (Local Time) from EGNM Reporting Station
Light Rain Light Rain  
Wind Chill: 37°   Ceiling: 900
Heat Index: 41°   Visibility: 2.1mi
Dew Point: 41°   Wind: 6mph
Humidity: 100%   Direction: 50°NE
Pressure: 29.97"   Gusts: NA
Location:  53.57°N, 1.79°W
Report Text: EGNM 260620Z 05005KT 020V090 3500 -RA BR SCT006 BKN009 05/05 Q1015
Loading
Personal Weather Stations






























Interactive Weather Map New forecast layout! Learn more

10-Day Weather Forecast

Advertisements
Track Severe Weather on mobile